Alpha, Kentucky
Current Conditions -  °F | °C
As of 6:13 AM on Monday 20 Oct 2014 (Local Time) from KEKQ Reporting Station
Moderate Fog Moderate Fog  
Wind Chill:   Ceiling: Unl
Heat Index:   Visibility: 0.5mi
Dew Point:   Wind: 0mph
Humidity: 100%   Direction: NA
Pressure: 30.1"   Gusts: NA
Location:  36.77°N, 85.01°W
Report Text: KEKQ 201113Z AUTO 00000KT 1/2SM FG CLR 03/03 A3010 RMK AO2
Loading
Personal Weather Stations






























Interactive Weather Map
Tropical Storm Tracking
New forecast layout! Learn more

10-Day Weather Forecast

Advertisements
Track Severe Weather on mobile